sensor_id;sensor_type;location;lat;lon;timestamp;pressure;altitude;pressure_sealevel;temperature;humidity
40940;BME280;26666;50.156;7.700;2023-06-10T00:00:33;100225.31;;;19.64;79.11
40940;BME280;26666;50.156;7.700;2023-06-10T00:05:41;100221.16;;;19.61;79.13
40940;BME280;26666;50.156;7.700;2023-06-10T00:11:10;100220.91;;;19.56;79.83
40940;BME280;26666;50.156;7.700;2023-06-10T00:16:18;100215.72;;;19.55;79.64
40940;BME280;26666;50.156;7.700;2023-06-10T00:33:38;100220.00;;;19.49;79.99
40940;BME280;26666;50.156;7.700;2023-06-10T00:39:00;100225.97;;;19.44;80.20
40940;BME280;26666;50.156;7.700;2023-06-10T00:50:16;100231.06;;;19.39;80.63
40940;BME280;26666;50.156;7.700;2023-06-10T00:55:21;100220.97;;;19.41;80.94
40940;BME280;26666;50.156;7.700;2023-06-10T01:00:53;100231.00;;;19.33;81.48
40940;BME280;26666;50.156;7.700;2023-06-10T01:06:12;100233.50;;;19.34;80.88
40940;BME280;26666;50.156;7.700;2023-06-10T01:12:01;100233.03;;;19.30;80.83
40940;BME280;26666;50.156;7.700;2023-06-10T01:23:49;100233.09;;;19.16;80.97
40940;BME280;26666;50.156;7.700;2023-06-10T01:29:36;100234.78;;;19.17;81.26
40940;BME280;26666;50.156;7.700;2023-06-10T01:35:03;100241.50;;;19.13;80.96
40940;BME280;26666;50.156;7.700;2023-06-10T01:40:35;100241.31;;;19.14;80.82
40940;BME280;26666;50.156;7.700;2023-06-10T01:45:54;100240.03;;;19.10;81.20
40940;BME280;26666;50.156;7.700;2023-06-10T01:50:56;100241.06;;;19.09;81.26
40940;BME280;26666;50.156;7.700;2023-06-10T02:02:19;100243.19;;;18.99;81.86
40940;BME280;26666;50.156;7.700;2023-06-10T02:07:27;100253.09;;;18.98;80.95
40940;BME280;26666;50.156;7.700;2023-06-10T02:12:51;100254.13;;;18.97;80.80
40940;BME280;26666;50.156;7.700;2023-06-10T02:18:25;100254.03;;;18.90;81.08
40940;BME280;26666;50.156;7.700;2023-06-10T02:23:26;100255.88;;;18.90;80.40
40940;BME280;26666;50.156;7.700;2023-06-10T02:28:42;100256.00;;;18.82;80.52
40940;BME280;26666;50.156;7.700;2023-06-10T02:33:52;100263.00;;;18.83;80.25
40940;BME280;26666;50.156;7.700;2023-06-10T02:39:06;100265.41;;;18.78;79.91
40940;BME280;26666;50.156;7.700;2023-06-10T02:44:08;100272.31;;;18.72;80.77
40940;BME280;26666;50.156;7.700;2023-06-10T02:49:22;100276.19;;;18.69;80.37
40940;BME280;26666;50.156;7.700;2023-06-10T03:00:36;100271.31;;;18.58;80.09
40940;BME280;26666;50.156;7.700;2023-06-10T03:05:42;100276.00;;;18.56;79.95
40940;BME280;26666;50.156;7.700;2023-06-10T03:10:46;100280.06;;;18.52;79.58
40940;BME280;26666;50.156;7.700;2023-06-10T03:16:24;100279.25;;;18.51;79.64
40940;BME280;26666;50.156;7.700;2023-06-10T03:21:57;100285.16;;;18.47;80.12
40940;BME280;26666;50.156;7.700;2023-06-10T03:27:10;100280.81;;;18.46;79.54
40940;BME280;26666;50.156;7.700;2023-06-10T03:32:14;100290.41;;;18.40;79.59
40940;BME280;26666;50.156;7.700;2023-06-10T03:37:18;100290.88;;;18.44;80.16
40940;BME280;26666;50.156;7.700;2023-06-10T03:42:34;100295.00;;;18.46;79.56
40940;BME280;26666;50.156;7.700;2023-06-10T03:47:45;100298.06;;;18.43;79.89
40940;BME280;26666;50.156;7.700;2023-06-10T03:52:54;100290.41;;;18.40;80.44
40940;BME280;26666;50.156;7.700;2023-06-10T03:58:02;100302.84;;;18.48;81.49
40940;BME280;26666;50.156;7.700;2023-06-10T04:03:13;100310.25;;;18.46;82.23
40940;BME280;26666;50.156;7.700;2023-06-10T04:08:16;100307.84;;;18.51;81.88
40940;BME280;26666;50.156;7.700;2023-06-10T04:19:36;100311.06;;;18.61;81.63
40940;BME280;26666;50.156;7.700;2023-06-10T04:24:58;100314.50;;;18.70;81.84
40940;BME280;26666;50.156;7.700;2023-06-10T04:30:00;100314.94;;;18.73;81.50
40940;BME280;26666;50.156;7.700;2023-06-10T04:35:01;100317.63;;;18.73;81.53
40940;BME280;26666;50.156;7.700;2023-06-10T04:40:26;100309.03;;;18.78;81.53
40940;BME280;26666;50.156;7.700;2023-06-10T04:46:05;100319.38;;;18.81;81.76
40940;BME280;26666;50.156;7.700;2023-06-10T04:51:12;100321.53;;;18.86;81.77
40940;BME280;26666;50.156;7.700;2023-06-10T04:56:25;100317.28;;;18.91;81.78
40940;BME280;26666;50.156;7.700;2023-06-10T05:02:02;100325.47;;;19.05;81.99
40940;BME280;26666;50.156;7.700;2023-06-10T05:07:10;100311.19;;;19.34;83.32
40940;BME280;26666;50.156;7.700;2023-06-10T05:12:22;100322.63;;;19.86;81.21
40940;BME280;26666;50.156;7.700;2023-06-10T05:23:30;100320.59;;;20.44;78.89
40940;BME280;26666;50.156;7.700;2023-06-10T05:28:36;100323.09;;;20.74;78.19
40940;BME280;26666;50.156;7.700;2023-06-10T05:33:38;100335.19;;;20.98;76.98
40940;BME280;26666;50.156;7.700;2023-06-10T05:38:52;100317.88;;;21.14;76.61
40940;BME280;26666;50.156;7.700;2023-06-10T05:44:10;100322.69;;;21.32;76.14
40940;BME280;26666;50.156;7.700;2023-06-10T05:49:14;100316.28;;;21.33;77.01
40940;BME280;26666;50.156;7.700;2023-06-10T05:54:54;100310.09;;;21.39;77.62
40940;BME280;26666;50.156;7.700;2023-06-10T06:00:07;100315.84;;;21.36;77.66
40940;BME280;26666;50.156;7.700;2023-06-10T06:05:26;100313.06;;;21.71;77.40
40940;BME280;26666;50.156;7.700;2023-06-10T06:10:34;100308.91;;;21.55;78.55
40940;BME280;26666;50.156;7.700;2023-06-10T06:15:43;100308.91;;;21.55;79.09
40940;BME280;26666;50.156;7.700;2023-06-10T07:15:02;100320.31;;;21.91;80.42
40940;BME280;26666;50.156;7.700;2023-06-10T07:20:04;100321.97;;;21.98;80.13
40940;BME280;26666;50.156;7.700;2023-06-10T07:31:26;100319.88;;;22.54;76.53
40940;BME280;26666;50.156;7.700;2023-06-10T07:36:43;100327.56;;;22.10;77.00
40940;BME280;26666;50.156;7.700;2023-06-10T07:41:57;100319.88;;;21.67;77.74
40940;BME280;26666;50.156;7.700;2023-06-10T07:47:03;100318.47;;;21.91;78.54
40940;BME280;26666;50.156;7.700;2023-06-10T07:52:14;100310.81;;;21.81;77.00
40940;BME280;26666;50.156;7.700;2023-06-10T08:03:05;100320.75;;;22.14;75.14
40940;BME280;26666;50.156;7.700;2023-06-10T08:08:10;100318.44;;;21.84;76.48
40940;BME280;26666;50.156;7.700;2023-06-10T08:31:30;100309.34;;;22.12;76.39
40940;BME280;26666;50.156;7.700;2023-06-10T08:43:10;100302.75;;;22.28;75.88
40940;BME280;26666;50.156;7.700;2023-06-10T08:48:52;100302.34;;;22.24;76.09
40940;BME280;26666;50.156;7.700;2023-06-10T08:54:18;100303.72;;;22.54;74.91
40940;BME280;26666;50.156;7.700;2023-06-10T08:59:58;100296.88;;;22.51;74.66
40940;BME280;26666;50.156;7.700;2023-06-10T09:05:12;100301.69;;;22.16;77.10
40940;BME280;26666;50.156;7.700;2023-06-10T09:10:38;100287.00;;;22.25;75.48
40940;BME280;26666;50.156;7.700;2023-06-10T09:28:21;100262.81;;;21.92;78.27
40940;BME280;26666;50.156;7.700;2023-06-10T09:33:26;100260.75;;;21.87;79.18
40940;BME280;26666;50.156;7.700;2023-06-10T09:38:46;100260.09;;;21.85;79.00
40940;BME280;26666;50.156;7.700;2023-06-10T09:44:16;100250.59;;;21.96;77.65
40940;BME280;26666;50.156;7.700;2023-06-10T09:49:50;100243.91;;;22.38;75.30
40940;BME280;26666;50.156;7.700;2023-06-10T09:55:02;100245.19;;;22.09;76.13
40940;BME280;26666;50.156;7.700;2023-06-10T10:00:10;100235.84;;;22.32;72.97
40940;BME280;26666;50.156;7.700;2023-06-10T10:05:44;100235.47;;;22.08;74.57
40940;BME280;26666;50.156;7.700;2023-06-10T10:17:10;100229.44;;;22.33;64.17
40940;BME280;26666;50.156;7.700;2023-06-10T10:22:43;100244.75;;;22.19;67.14
40940;BME280;26666;50.156;7.700;2023-06-10T10:28:02;100233.09;;;23.03;64.37
40940;BME280;26666;50.156;7.700;2023-06-10T10:33:41;100237.19;;;22.68;66.35
40940;BME280;26666;50.156;7.700;2023-06-10T10:38:56;100228.44;;;22.07;65.94
40940;BME280;26666;50.156;7.700;2023-06-10T10:43:59;100227.13;;;22.43;67.24
40940;BME280;26666;50.156;7.700;2023-06-10T10:49:13;100229.66;;;22.83;66.92
40940;BME280;26666;50.156;7.700;2023-06-10T11:06:26;100224.88;;;22.20;69.40
40940;BME280;26666;50.156;7.700;2023-06-10T11:11:49;100217.13;;;22.63;68.29
40940;BME280;26666;50.156;7.700;2023-06-10T11:17:05;100211.13;;;22.55;69.87
40940;BME280;26666;50.156;7.700;2023-06-10T11:29:04;100215.31;;;22.44;64.59
40940;BME280;26666;50.156;7.700;2023-06-10T11:34:21;100204.56;;;22.37;65.87
40940;BME280;26666;50.156;7.700;2023-06-10T11:39:26;100223.44;;;22.31;64.85
40940;BME280;26666;50.156;7.700;2023-06-10T11:44:35;100196.25;;;22.52;64.96
40940;BME280;26666;50.156;7.700;2023-06-10T11:49:37;100189.31;;;22.24;65.93
40940;BME280;26666;50.156;7.700;2023-06-10T11:54:39;100181.44;;;22.16;68.00
40940;BME280;26666;50.156;7.700;2023-06-10T11:59:42;100186.78;;;22.30;64.96
40940;BME280;26666;50.156;7.700;2023-06-10T12:05:12;100184.91;;;22.23;61.48
40940;BME280;26666;50.156;7.700;2023-06-10T12:10:17;100197.25;;;22.51;63.50
40940;BME280;26666;50.156;7.700;2023-06-10T12:15:36;100183.97;;;22.63;62.74
40940;BME280;26666;50.156;7.700;2023-06-10T12:26:36;100177.63;;;22.44;62.53
40940;BME280;26666;50.156;7.700;2023-06-10T12:32:08;100179.53;;;22.23;62.03
40940;BME280;26666;50.156;7.700;2023-06-10T12:37:28;100183.13;;;22.62;61.26
40940;BME280;26666;50.156;7.700;2023-06-10T12:42:37;100185.97;;;22.22;60.02
40940;BME280;26666;50.156;7.700;2023-06-10T12:47:51;100184.44;;;22.47;60.76
40940;BME280;26666;50.156;7.700;2023-06-10T12:53:15;100175.66;;;22.13;64.17
40940;BME280;26666;50.156;7.700;2023-06-10T12:58:30;100170.22;;;22.19;64.03
40940;BME280;26666;50.156;7.700;2023-06-10T13:03:36;100167.78;;;22.11;62.61
40940;BME280;26666;50.156;7.700;2023-06-10T13:09:03;100175.72;;;22.51;61.28
40940;BME280;26666;50.156;7.700;2023-06-10T13:14:10;100166.66;;;22.84;60.36
40940;BME280;26666;50.156;7.700;2023-06-10T13:19:16;100165.47;;;22.21;63.35
40940;BME280;26666;50.156;7.700;2023-06-10T13:41:51;100141.25;;;22.21;63.88
40940;BME280;26666;50.156;7.700;2023-06-10T13:47:14;100148.09;;;22.17;64.14
40940;BME280;26666;50.156;7.700;2023-06-10T13:52:36;100145.75;;;22.48;62.56
40940;BME280;26666;50.156;7.700;2023-06-10T13:57:53;100145.81;;;22.21;62.93
40940;BME280;26666;50.156;7.700;2023-06-10T14:03:12;100135.34;;;22.51;62.11
40940;BME280;26666;50.156;7.700;2023-06-10T14:08:53;100126.97;;;22.28;61.10
40940;BME280;26666;50.156;7.700;2023-06-10T14:14:04;100116.19;;;22.28;62.41
40940;BME280;26666;50.156;7.700;2023-06-10T14:19:15;100125.59;;;22.05;61.35
40940;BME280;26666;50.156;7.700;2023-06-10T14:30:29;100102.59;;;22.09;62.32
40940;BME280;26666;50.156;7.700;2023-06-10T14:35:55;100102.00;;;22.07;61.49
40940;BME280;26666;50.156;7.700;2023-06-10T14:41:00;100111.50;;;22.10;59.60
40940;BME280;26666;50.156;7.700;2023-06-10T14:46:40;100099.00;;;22.22;60.64
40940;BME280;26666;50.156;7.700;2023-06-10T14:52:10;100095.28;;;22.23;60.81
40940;BME280;26666;50.156;7.700;2023-06-10T14:57:18;100100.72;;;22.10;61.34
40940;BME280;26666;50.156;7.700;2023-06-10T15:02:51;100093.88;;;22.14;59.91
40940;BME280;26666;50.156;7.700;2023-06-10T15:07:59;100082.97;;;22.02;62.30
40940;BME280;26666;50.156;7.700;2023-06-10T15:13:01;100089.97;;;22.55;59.39
40940;BME280;26666;50.156;7.700;2023-06-10T15:30:35;100087.16;;;21.91;62.03
40940;BME280;26666;50.156;7.700;2023-06-10T15:35:37;100069.25;;;22.10;62.65
40940;BME280;26666;50.156;7.700;2023-06-10T15:41:05;100073.09;;;21.82;62.89
40940;BME280;26666;50.156;7.700;2023-06-10T15:46:20;100069.09;;;22.05;62.51
40940;BME280;26666;50.156;7.700;2023-06-10T15:51:59;100074.47;;;22.05;62.11
40940;BME280;26666;50.156;7.700;2023-06-10T15:57:09;100064.78;;;21.91;62.73
40940;BME280;26666;50.156;7.700;2023-06-10T16:02:22;100060.22;;;21.98;63.96
40940;BME280;26666;50.156;7.700;2023-06-10T16:07:26;100074.59;;;22.23;62.25
40940;BME280;26666;50.156;7.700;2023-06-10T16:12:31;100066.75;;;22.15;62.78
40940;BME280;26666;50.156;7.700;2023-06-10T16:17:46;100059.41;;;21.91;62.82
40940;BME280;26666;50.156;7.700;2023-06-10T16:22:59;100069.94;;;21.99;62.48
40940;BME280;26666;50.156;7.700;2023-06-10T16:28:28;100061.56;;;22.20;63.62
40940;BME280;26666;50.156;7.700;2023-06-10T16:33:58;100065.34;;;22.06;64.24
40940;BME280;26666;50.156;7.700;2023-06-10T16:39:09;100069.84;;;22.25;62.55
40940;BME280;26666;50.156;7.700;2023-06-10T16:44:17;100071.34;;;22.08;65.51
40940;BME280;26666;50.156;7.700;2023-06-10T16:49:53;100074.13;;;21.88;65.94
40940;BME280;26666;50.156;7.700;2023-06-10T16:55:10;100073.28;;;21.88;66.56
40940;BME280;26666;50.156;7.700;2023-06-10T17:00:34;100083.03;;;21.82;68.04
40940;BME280;26666;50.156;7.700;2023-06-10T17:05:38;100081.41;;;21.74;68.97
40940;BME280;26666;50.156;7.700;2023-06-10T17:10:48;100096.91;;;21.79;69.44
40940;BME280;26666;50.156;7.700;2023-06-10T17:16:08;100096.72;;;21.74;70.33
40940;BME280;26666;50.156;7.700;2023-06-10T17:21:42;100092.91;;;22.01;68.60
40940;BME280;26666;50.156;7.700;2023-06-10T17:27:16;100099.16;;;21.75;70.74
40940;BME280;26666;50.156;7.700;2023-06-10T17:32:27;100096.25;;;21.90;70.08
40940;BME280;26666;50.156;7.700;2023-06-10T17:37:30;100092.78;;;21.76;70.08
40940;BME280;26666;50.156;7.700;2023-06-10T17:43:08;100084.72;;;21.76;71.01
40940;BME280;26666;50.156;7.700;2023-06-10T17:48:11;100099.75;;;21.91;71.37
40940;BME280;26666;50.156;7.700;2023-06-10T17:53:20;100106.44;;;21.68;72.34
40940;BME280;26666;50.156;7.700;2023-06-10T17:58:31;100107.28;;;21.69;73.62
40940;BME280;26666;50.156;7.700;2023-06-10T18:04:09;100107.88;;;21.71;72.99
40940;BME280;26666;50.156;7.700;2023-06-10T18:15:22;100116.16;;;21.69;72.42
40940;BME280;26666;50.156;7.700;2023-06-10T18:20:36;100123.59;;;21.74;72.19
40940;BME280;26666;50.156;7.700;2023-06-10T18:25:56;100128.97;;;21.80;72.27
40940;BME280;26666;50.156;7.700;2023-06-10T18:31:06;100126.06;;;21.75;73.75
40940;BME280;26666;50.156;7.700;2023-06-10T18:36:41;100136.22;;;21.73;74.43
40940;BME280;26666;50.156;7.700;2023-06-10T18:42:26;100140.16;;;21.71;75.56
40940;BME280;26666;50.156;7.700;2023-06-10T18:53:11;100146.78;;;21.68;76.01
40940;BME280;26666;50.156;7.700;2023-06-10T19:04:18;100160.84;;;21.57;77.05
40940;BME280;26666;50.156;7.700;2023-06-10T19:09:49;100165.22;;;21.58;77.68
40940;BME280;26666;50.156;7.700;2023-06-10T19:14:51;100174.28;;;21.57;78.16
40940;BME280;26666;50.156;7.700;2023-06-10T19:19:55;100180.28;;;21.59;78.32
40940;BME280;26666;50.156;7.700;2023-06-10T19:31:26;100199.31;;;21.57;79.46
40940;BME280;26666;50.156;7.700;2023-06-10T19:36:31;100210.06;;;21.57;79.73
40940;BME280;26666;50.156;7.700;2023-06-10T19:41:41;100221.44;;;21.59;80.03
40940;BME280;26666;50.156;7.700;2023-06-10T19:47:07;100219.16;;;21.63;80.31
40940;BME280;26666;50.156;7.700;2023-06-10T19:52:20;100223.09;;;21.67;80.36
40940;BME280;26666;50.156;7.700;2023-06-10T19:57:53;100226.81;;;21.66;80.64
40940;BME280;26666;50.156;7.700;2023-06-10T20:02:56;100236.72;;;21.65;80.86
40940;BME280;26666;50.156;7.700;2023-06-10T20:13:57;100233.22;;;21.65;81.33
40940;BME280;26666;50.156;7.700;2023-06-10T20:19:15;100237.59;;;21.66;80.76
40940;BME280;26666;50.156;7.700;2023-06-10T20:24:26;100247.72;;;21.64;80.85
40940;BME280;26666;50.156;7.700;2023-06-10T20:29:31;100255.78;;;21.64;81.41
40940;BME280;26666;50.156;7.700;2023-06-10T20:34:37;100264.88;;;21.63;80.68
40940;BME280;26666;50.156;7.700;2023-06-10T20:40:06;100273.38;;;21.60;81.55
40940;BME280;26666;50.156;7.700;2023-06-10T20:51:18;100283.50;;;21.58;81.29
40940;BME280;26666;50.156;7.700;2023-06-10T20:56:26;100290.72;;;21.57;81.51
40940;BME280;26666;50.156;7.700;2023-06-10T21:01:55;100296.50;;;21.54;81.66
40940;BME280;26666;50.156;7.700;2023-06-10T21:07:20;100296.72;;;21.53;81.47
40940;BME280;26666;50.156;7.700;2023-06-10T21:18:21;100300.00;;;21.48;81.86
40940;BME280;26666;50.156;7.700;2023-06-10T21:23:30;100309.31;;;21.45;81.75
40940;BME280;26666;50.156;7.700;2023-06-10T21:28:46;100310.50;;;21.43;81.85
40940;BME280;26666;50.156;7.700;2023-06-10T21:40:22;100315.66;;;21.38;82.22
40940;BME280;26666;50.156;7.700;2023-06-10T21:45:47;100315.84;;;21.36;82.48
40940;BME280;26666;50.156;7.700;2023-06-10T21:50:49;100314.22;;;21.35;82.01
40940;BME280;26666;50.156;7.700;2023-06-10T21:56:01;100315.25;;;21.34;82.40
40940;BME280;26666;50.156;7.700;2023-06-10T22:01:03;100319.78;;;21.34;82.94
40940;BME280;26666;50.156;7.700;2023-06-10T22:06:08;100330.72;;;21.25;82.76
40940;BME280;26666;50.156;7.700;2023-06-10T22:11:21;100331.75;;;21.24;82.56
40940;BME280;26666;50.156;7.700;2023-06-10T22:16:25;100336.50;;;21.22;82.70
40940;BME280;26666;50.156;7.700;2023-06-10T22:21:55;100332.34;;;21.20;82.18
40940;BME280;26666;50.156;7.700;2023-06-10T22:26:58;100331.94;;;21.16;81.92
40940;BME280;26666;50.156;7.700;2023-06-10T22:38:05;100332.94;;;21.08;82.30
40940;BME280;26666;50.156;7.700;2023-06-10T22:43:08;100332.94;;;21.08;82.31
40940;BME280;26666;50.156;7.700;2023-06-10T22:54:22;100333.13;;;21.00;82.65
40940;BME280;26666;50.156;7.700;2023-06-10T22:59:25;100334.97;;;21.00;82.03
40940;BME280;26666;50.156;7.700;2023-06-10T23:04:27;100349.00;;;20.95;82.11
40940;BME280;26666;50.156;7.700;2023-06-10T23:09:32;100345.03;;;20.91;82.09
40940;BME280;26666;50.156;7.700;2023-06-10T23:14:53;100348.97;;;20.88;82.25
40940;BME280;26666;50.156;7.700;2023-06-10T23:20:13;100340.03;;;20.81;82.25
40940;BME280;26666;50.156;7.700;2023-06-10T23:25:15;100354.53;;;20.87;82.85
40940;BME280;26666;50.156;7.700;2023-06-10T23:30:46;100359.88;;;20.80;82.45
40940;BME280;26666;50.156;7.700;2023-06-10T23:36:06;100352.03;;;20.79;82.34
40940;BME280;26666;50.156;7.700;2023-06-10T23:41:08;100355.72;;;20.78;82.49
40940;BME280;26666;50.156;7.700;2023-06-10T23:46:14;100355.72;;;20.78;82.52
40940;BME280;26666;50.156;7.700;2023-06-10T23:51:26;100362.69;;;20.72;82.45
40940;BME280;26666;50.156;7.700;2023-06-10T23:56:40;100366.44;;;20.71;82.66
